Time;durP1;ratioP1;P1;durP2;ratioP2;P2;SDS_P1;SDS_P2;PMS_P1;PMS_P2;Temp;Humidity;BMP_temperature;BMP_pressure;BME280_temperature;BME280_humidity;BME280_pressure;Samples;Min_cycle;Max_cycle;Signal;HPM_P1;HPM_P2
2021/07/26 00:02:04;;;;;;;12.43;9.63;;;19.80;86.30;;;;;;4974513;28;20107;-68
2021/07/26 00:04:29;;;;;;;14.15;10.57;;;19.90;86.50;;;;;;4974837;28;20049;-67
2021/07/26 00:06:55;;;;;;;13.35;10.45;;;19.90;86.20;;;;;;4975089;28;20066;-68
2021/07/26 00:09:20;;;;;;;9.98;8.98;;;19.90;85.90;;;;;;4975355;28;20030;-68
2021/07/26 00:11:46;;;;;;;11.57;10.05;;;19.90;86.20;;;;;;4957713;28;20444;-68
2021/07/26 00:14:11;;;;;;;11.15;9.43;;;20.00;86.10;;;;;;4975113;28;20034;-68
2021/07/26 00:16:37;;;;;;;18.35;10.20;;;19.90;85.90;;;;;;4974281;28;20477;-68
2021/07/26 00:19:03;;;;;;;11.27;9.73;;;20.00;86.20;;;;;;4974722;28;20027;-67
2021/07/26 00:21:28;;;;;;;12.40;9.07;;;19.90;86.20;;;;;;4957349;28;20019;-68
2021/07/26 00:23:54;;;;;;;10.65;8.98;;;19.90;86.20;;;;;;4974946;28;20389;-68
2021/07/26 00:26:19;;;;;;;11.25;9.65;;;20.00;86.30;;;;;;4956707;28;20026;-68
2021/07/26 00:28:45;;;;;;;13.90;9.15;;;19.90;86.30;;;;;;4974727;28;20146;-68
2021/07/26 00:31:10;;;;;;;14.60;9.20;;;20.00;86.10;;;;;;4974726;28;20034;-68
2021/07/26 00:34:13;;;;;;;9.95;8.90;;;20.00;86.00;;;;;;4974771;28;20019;-68
2021/07/26 00:36:49;;;;;;;10.20;9.02;;;20.00;86.30;;;;;;4973958;28;20074;-68
2021/07/26 00:39:18;;;;;;;12.73;9.82;;;19.90;86.00;;;;;;4974950;28;20030;-68
2021/07/26 00:41:45;;;;;;;16.63;10.07;;;;;;;;;;4970421;28;20019;-68
2021/07/26 00:44:11;;;;;;;11.18;10.07;;;;;;;;;;4955158;29;20023;-68
2021/07/26 00:46:37;;;;;;;14.70;10.52;;;;;;;;;;4937020;29;20020;-68
2021/07/26 00:49:04;;;;;;;15.48;10.40;;;;;;;;;;4955094;28;20031;-68
2021/07/26 00:51:30;;;;;;;13.77;10.40;;;;;;;;;;4937734;29;20058;-68
2021/07/26 00:53:57;;;;;;;13.45;9.88;;;;;;;;;;4955090;28;20098;-68
2021/07/26 00:56:23;;;;;;;14.25;9.82;;;;;;;;;;4954575;29;20394;-67
2021/07/26 00:58:49;;;;;;;15.60;9.95;;;;;;;;;;4957996;28;20030;-66
2021/07/26 01:01:17;;;;;;;14.93;9.93;;;;;;;;;;4974211;28;20181;-67
2021/07/26 01:03:43;;;;;;;16.13;11.48;;;;;;;;;;4974495;28;20011;-67
2021/07/26 01:06:09;;;;;;;17.15;12.00;;;;;;;;;;4956035;28;20023;-67
2021/07/26 01:08:36;;;;;;;20.55;11.27;;;;;;;;;;4974071;28;20031;-66
2021/07/26 01:11:03;;;;;;;15.02;10.85;;;;;;;;;;4973922;28;20034;-66
2021/07/26 01:13:30;;;;;;;15.10;11.65;;;;;;;;;;4973673;28;20493;-67
2021/07/26 01:15:56;;;;;;;11.18;10.07;;;;;;;;;;4973260;28;20398;-67
2021/07/26 01:18:23;;;;;;;14.68;10.80;;;;;;;;;;4973753;28;20396;-67
2021/07/26 01:20:59;;;;;;;16.00;10.68;;;;;;;;;;4973820;28;20101;-67
2021/07/26 01:23:26;;;;;;;11.68;10.30;;;;;;;;;;4973834;28;20528;-67
2021/07/26 01:25:52;;;;;;;14.57;10.30;;;19.00;88.50;;;;;;4972917;28;20050;-67
2021/07/26 01:28:19;;;;;;;12.73;11.13;;;19.00;88.70;;;;;;4956272;28;20038;-68
2021/07/26 01:30:47;;;;;;;17.17;10.35;;;19.00;88.90;;;;;;4973557;28;20038;-68
2021/07/26 01:33:14;;;;;;;12.10;10.60;;;18.90;88.80;;;;;;4973700;28;20116;-68
2021/07/26 01:35:40;;;;;;;11.88;10.48;;;19.00;88.70;;;;;;4972867;28;20041;-68
2021/07/26 01:38:06;;;;;;;13.30;10.32;;;18.90;88.70;;;;;;4973520;28;20038;-68
2021/07/26 01:40:34;;;;;;;15.02;11.48;;;19.00;88.50;;;;;;4973075;28;20050;-68
2021/07/26 01:43:09;;;;;;;15.35;11.00;;;18.90;88.40;;;;;;4973423;28;20023;-68
2021/07/26 01:45:39;;;;;;;12.45;10.40;;;18.80;88.60;;;;;;4972734;28;20047;-68
2021/07/26 01:48:08;;;;;;;15.38;12.25;;;18.70;88.80;;;;;;4973406;28;20054;-68
2021/07/26 01:50:45;;;;;;;16.83;12.07;;;18.70;89.00;;;;;;4973324;28;20504;-67
2021/07/26 01:53:11;;;;;;;14.88;11.60;;;18.70;88.90;;;;;;4955876;28;20082;-67
2021/07/26 01:55:36;;;;;;;13.05;11.60;;;18.70;89.10;;;;;;4972603;28;20027;-68
2021/07/26 01:58:02;;;;;;;14.18;11.20;;;18.60;89.10;;;;;;4973014;28;20388;-68
2021/07/26 02:00:28;;;;;;;13.57;11.15;;;18.60;89.10;;;;;;4972793;28;20019;-68
2021/07/26 02:02:53;;;;;;;16.42;11.68;;;18.60;89.10;;;;;;4973159;28;20027;-68
2021/07/26 02:05:19;;;;;;;15.43;12.25;;;18.50;89.20;;;;;;4954947;28;20062;-68
2021/07/26 02:07:44;;;;;;;15.05;12.73;;;18.50;89.10;;;;;;4972858;28;20042;-68
2021/07/26 02:10:10;;;;;;;14.88;12.70;;;18.50;89.30;;;;;;4973027;28;20102;-68
2021/07/26 02:12:35;;;;;;;19.15;14.43;;;18.50;89.40;;;;;;4955687;28;20030;-69
2021/07/26 02:15:01;;;;;;;18.85;14.68;;;18.50;89.50;;;;;;4958967;28;20034;-68
2021/07/26 02:17:27;;;;;;;18.35;14.45;;;18.50;89.40;;;;;;4953800;29;20034;-68
2021/07/26 02:19:52;;;;;;;24.30;15.65;;;18.50;89.30;;;;;;4953626;28;20032;-68
2021/07/26 02:22:19;;;;;;;24.50;15.25;;;18.50;89.20;;;;;;4953646;29;20429;-68
2021/07/26 02:24:44;;;;;;;20.33;15.30;;;18.40;89.40;;;;;;4952979;29;20035;-68
2021/07/26 02:27:10;;;;;;;22.00;15.77;;;18.40;89.60;;;;;;4953556;29;20505;-68
2021/07/26 02:29:35;;;;;;;20.88;15.98;;;18.40;89.60;;;;;;4953631;28;20038;-68
2021/07/26 02:32:01;;;;;;;18.42;14.90;;;18.30;89.60;;;;;;4953713;29;20381;-68
2021/07/26 02:34:26;;;;;;;19.23;15.15;;;18.30;89.50;;;;;;4951742;29;20023;-69
2021/07/26 02:36:52;;;;;;;18.58;15.13;;;18.30;89.50;;;;;;4953401;29;20023;-68
2021/07/26 02:39:17;;;;;;;20.90;15.35;;;18.20;89.50;;;;;;4953327;28;20046;-68
2021/07/26 02:41:43;;;;;;;22.17;15.10;;;18.30;89.60;;;;;;4952485;29;20070;-68
2021/07/26 02:44:09;;;;;;;24.08;15.65;;;18.20;89.50;;;;;;4950277;28;20055;-68
2021/07/26 02:46:35;;;;;;;29.67;16.38;;;18.10;89.50;;;;;;4952675;29;20038;-68
2021/07/26 02:49:00;;;;;;;18.98;13.98;;;18.00;89.60;;;;;;4953518;28;20385;-68
2021/07/26 02:51:26;;;;;;;18.40;14.38;;;18.00;89.70;;;;;;4952527;29;20035;-68
2021/07/26 02:53:51;;;;;;;24.58;14.90;;;18.10;89.70;;;;;;4953630;29;20031;-68
2021/07/26 02:56:17;;;;;;;20.65;14.38;;;18.10;89.60;;;;;;4952785;29;20047;-68
2021/07/26 02:58:43;;;;;;;18.15;15.10;;;18.10;89.60;;;;;;4953402;29;20484;-68
2021/07/26 03:01:10;;;;;;;19.45;14.45;;;18.10;89.60;;;;;;4953244;28;20023;-68
2021/07/26 03:03:35;;;;;;;18.02;13.85;;;18.10;89.70;;;;;;4952085;29;20031;-68
2021/07/26 03:06:01;;;;;;;19.17;15.48;;;18.00;90.00;;;;;;4952613;29;20099;-68
2021/07/26 03:08:29;;;;;;;19.88;14.95;;;18.00;90.10;;;;;;4953187;29;20027;-68
2021/07/26 03:11:02;;;;;;;26.95;14.77;;;18.00;90.20;;;;;;4953037;28;20452;-68
2021/07/26 03:13:28;;;;;;;23.83;16.80;;;;;;;;;;4953205;29;20023;-68
2021/07/26 03:15:54;;;;;;;998.90;840.65;;;;;;;;;;4953112;29;20035;-68
2021/07/26 03:18:20;;;;;;;305.60;273.00;;;;;;;;;;4953299;29;20027;-68
2021/07/26 03:20:47;;;;;;;28.38;19.02;;;;;;;;;;4953143;29;20042;-68
2021/07/26 03:23:12;;;;;;;23.50;16.77;;;;;;;;;;4953069;28;20474;-67
2021/07/26 03:25:40;;;;;;;51.90;28.23;;;;;;;;;;4952600;28;20035;-68
2021/07/26 03:28:06;;;;;;;50.85;28.90;;;;;;;;;;4952950;28;20086;-68
2021/07/26 03:30:32;;;;;;;356.08;259.20;;;;;;;;;;4952878;28;20035;-67
2021/07/26 03:32:58;;;;;;;63.17;43.08;;;;;;;;;;4953097;29;20038;-68
2021/07/26 03:35:25;;;;;;;37.20;26.77;;;;;;;;;;4952357;28;20110;-67
2021/07/26 03:37:52;;;;;;;29.92;19.33;;;;;;;;;;4956225;28;20035;-68
2021/07/26 03:40:18;;;;;;;25.08;18.13;;;;;;;;;;4985876;22;20047;-69
2021/07/26 03:42:44;;;;;;;34.67;22.17;;;;;;;;;;4975721;28;20417;-71
2021/07/26 03:45:12;;;;;;;31.88;17.73;;;;;;;;;;4973978;28;20027;-70
2021/07/26 03:47:38;;;;;;;23.35;15.63;;;;;;;;;;4975522;28;20030;-69
2021/07/26 03:50:05;;;;;;;24.95;15.30;;;;;;;;;;4975327;28;20085;-70
2021/07/26 03:52:31;;;;;;;24.52;16.35;;;;;;;;;;4958336;28;20031;-70
2021/07/26 03:54:58;;;;;;;22.92;15.75;;;;;;;;;;4974742;28;20022;-69
2021/07/26 03:57:24;;;;;;;25.27;15.48;;;;;;;;;;4957953;28;20725;-69
2021/07/26 03:59:50;;;;;;;22.48;14.27;;;;;;;;;;4957818;28;20038;-69
2021/07/26 04:02:16;;;;;;;17.95;13.05;;;;;;;;;;4957827;28;20657;-69
2021/07/26 04:04:42;;;;;;;15.38;13.20;;;;;;;;;;4974239;28;20038;-69
2021/07/26 04:07:15;;;;;;;17.88;12.63;;;;;;;;;;4957638;28;20027;-69
2021/07/26 04:09:47;;;;;;;17.13;10.85;;;;;;;;;;4957693;28;20022;-69
2021/07/26 04:12:19;;;;;;;15.85;10.20;;;;;;;;;;4975058;28;20034;-70
2021/07/26 04:14:44;;;;;;;16.27;9.55;;;;;;;;;;4956888;28;20082;-69
2021/07/26 04:17:10;;;;;;;15.63;9.32;;;;;;;;;;4957381;28;20023;-70
2021/07/26 04:19:36;;;;;;;15.52;10.00;;;;;;;;;;4974571;28;20097;-70
2021/07/26 04:22:02;;;;;;;13.93;8.75;;;;;;;;;;4974877;28;20067;-70
2021/07/26 04:24:28;;;;;;;16.40;8.98;;;;;;;;;;4974084;28;20049;-69
2021/07/26 04:26:54;;;;;;;15.82;9.23;;;;;;;;;;4974683;28;20508;-70
2021/07/26 04:29:20;;;;;;;17.70;9.57;;;;;;;;;;4975256;28;20055;-70
2021/07/26 04:31:47;;;;;;;17.00;9.65;;;;;;;;;;4974501;28;20500;-70
2021/07/26 04:34:13;;;;;;;13.38;9.00;;;;;;;;;;4974745;28;20030;-70
2021/07/26 04:36:39;;;;;;;18.52;8.90;;;;;;;;;;4973965;28;20038;-69
2021/07/26 04:39:05;;;;;;;17.17;9.48;;;;;;;;;;4974426;28;20027;-70
2021/07/26 04:41:33;;;;;;;11.90;8.10;;;;;;;;;;4953580;28;20038;-70
2021/07/26 04:43:59;;;;;;;15.35;8.43;;;;;;;;;;4959877;28;20022;-69
2021/07/26 04:46:25;;;;;;;12.18;7.95;;;;;;;;;;4972866;28;20038;-69
2021/07/26 04:48:51;;;;;;;16.67;8.32;;;;;;;;;;4956752;28;20192;-69
2021/07/26 04:51:16;;;;;;;11.15;6.60;;;;;;;;;;4973893;28;20057;-69
2021/07/26 04:53:42;;;;;;;15.40;9.07;;;;;;;;;;4956659;28;20381;-69
2021/07/26 04:56:08;;;;;;;14.48;7.97;;;;;;;;;;4956001;28;20073;-69
2021/07/26 04:58:34;;;;;;;11.20;7.35;;;;;;;;;;4973936;28;20035;-69
2021/07/26 05:01:01;;;;;;;12.23;7.80;;;;;;;;;;4981415;28;20030;-69
2021/07/26 05:03:27;;;;;;;12.82;7.72;;;;;;;;;;4993191;28;20388;-69
2021/07/26 05:05:52;;;;;;;13.10;6.82;;;;;;;;;;4974808;28;20022;-70
2021/07/26 05:08:18;;;;;;;13.43;8.02;;;;;;;;;;4993376;28;20056;-70
2021/07/26 05:10:46;;;;;;;12.40;8.00;;;31.40;45.10;;;;;;4975690;28;20045;-70
2021/07/26 05:13:11;;;;;;;17.73;7.70;;;31.60;44.10;;;;;;4981716;28;20218;-70
2021/07/26 05:15:37;;;;;;;13.20;7.65;;;31.20;45.40;;;;;;4973187;28;20106;-70
2021/07/26 05:18:02;;;;;;;13.27;7.30;;;31.60;44.80;;;;;;4973477;28;20030;-70
2021/07/26 05:20:28;;;;;;;23.58;8.90;;;32.00;43.90;;;;;;4973342;28;20449;-69
2021/07/26 05:22:55;;;;;;;12.00;7.50;;;;;;;;;;4956050;28;20030;-68
2021/07/26 05:25:20;;;;;;;13.30;7.13;;;;;;;;;;4980192;28;20515;-69
2021/07/26 05:27:46;;;;;;;10.55;6.63;;;;;;;;;;4975593;28;20062;-69
2021/07/26 05:30:13;;;;;;;12.43;7.32;;;;;;;;;;4991403;28;20046;-69
2021/07/26 05:32:39;;;;;;;10.70;7.40;;;;;;;;;;4973011;28;20525;-68
2021/07/26 05:35:05;;;;;;;12.25;7.88;;;;;;;;;;4972503;28;20117;-66
2021/07/26 05:37:31;;;;;;;13.65;8.80;;;;;;;;;;4973261;28;20037;-68
2021/07/26 05:39:56;;;;;;;14.15;8.35;;;31.60;43.00;;;;;;4973108;28;20031;-66
2021/07/26 05:42:22;;;;;;;10.85;5.90;;;31.90;42.70;;;;;;4973046;28;20027;-68
2021/07/26 05:44:47;;;;;;;11.35;7.75;;;32.40;42.50;;;;;;4972324;28;20110;-66
2021/07/26 05:47:13;;;;;;;13.40;7.57;;;33.40;40.60;;;;;;4974432;28;20473;-68
2021/07/26 05:49:41;;;;;;;13.48;7.22;;;32.20;42.40;;;;;;4962119;28;20504;-68
2021/07/26 05:52:06;;;;;;;10.32;6.93;;;31.10;45.60;;;;;;4981270;28;20019;-67
2021/07/26 05:54:32;;;;;;;12.45;8.25;;;31.50;45.40;;;;;;4968928;28;20026;-67
2021/07/26 05:57:00;;;;;;;13.30;7.40;;;32.00;43.30;;;;;;4954254;28;20019;-71
2021/07/26 05:59:27;;;;;;;115.53;103.03;;;31.70;45.20;;;;;;4971799;28;20025;-67
2021/07/26 06:01:53;;;;;;;13.27;8.85;;;31.70;45.00;;;;;;4973616;28;20077;-68
2021/07/26 06:04:23;;;;;;;11.30;6.68;;;30.60;46.40;;;;;;4983476;28;20018;-69
2021/07/26 06:06:52;;;;;;;9.70;6.97;;;30.50;47.20;;;;;;4976663;28;20027;-69
2021/07/26 06:09:21;;;;;;;19.27;9.68;;;31.50;46.20;;;;;;4988422;28;20022;-69
2021/07/26 06:11:46;;;;;;;21.17;15.57;;;33.20;42.70;;;;;;4979084;28;20519;-68
2021/07/26 06:14:13;;;;;;;19.70;17.52;;;33.30;43.40;;;;;;4981283;28;20055;-67
2021/07/26 06:16:43;;;;;;;20.30;14.27;;;33.70;41.20;;;;;;4985142;28;20041;-69
2021/07/26 06:19:09;;;;;;;12.23;8.77;;;34.00;41.80;;;;;;4975338;28;20117;-67
2021/07/26 06:21:45;;;;;;;20.67;15.52;;;33.90;41.50;;;;;;4969080;28;20025;-69
2021/07/26 06:24:13;;;;;;;15.88;9.77;;;33.90;40.50;;;;;;4964744;28;20022;-68
2021/07/26 06:26:38;;;;;;;58.58;48.13;;;34.20;39.70;;;;;;4977258;28;20485;-68
2021/07/26 06:29:04;;;;;;;33.25;21.40;;;33.90;39.90;;;;;;4988130;28;20038;-67
2021/07/26 06:31:32;;;;;;;12.00;8.48;;;33.40;40.30;;;;;;4959201;28;20030;-68
2021/07/26 06:33:59;;;;;;;11.25;5.40;;;32.80;42.00;;;;;;4983273;28;20027;-68
2021/07/26 06:36:25;;;;;;;12.38;8.23;;;32.30;43.30;;;;;;4983663;28;20030;-67
2021/07/26 06:38:50;;;;;;;13.32;8.27;;;31.90;44.20;;;;;;4975750;28;20035;-68
2021/07/26 06:41:16;;;;;;;29.55;22.60;;;31.70;44.50;;;;;;4980216;28;20035;-68
2021/07/26 06:43:41;;;;;;;17.17;7.03;;;31.90;44.80;;;;;;4985179;28;20127;-69
2021/07/26 06:46:07;;;;;;;20.90;14.35;;;32.40;43.30;;;;;;4980935;28;20022;-68
2021/07/26 06:48:32;;;;;;;32.35;22.95;;;32.70;43.10;;;;;;4961033;28;20027;-70
2021/07/26 06:50:59;;;;;;;18.58;11.68;;;34.10;40.00;;;;;;4987734;28;20034;-69
2021/07/26 06:53:25;;;;;;;18.73;11.40;;;34.90;38.20;;;;;;4975664;28;20073;-68
2021/07/26 06:55:51;;;;;;;30.75;21.70;;;35.40;37.50;;;;;;4983075;28;20331;-70
2021/07/26 06:58:17;;;;;;;10.90;7.15;;;35.30;37.20;;;;;;4990252;28;20114;-69
2021/07/26 07:00:42;;;;;;;16.27;11.95;;;34.00;39.10;;;;;;4977064;28;20429;-69
2021/07/26 07:03:08;;;;;;;11.60;6.50;;;33.20;40.70;;;;;;4987911;28;20030;-68
2021/07/26 07:05:33;;;;;;;18.08;8.15;;;32.40;43.40;;;;;;4954505;28;20023;-71
2021/07/26 07:07:59;;;;;;;12.68;7.95;;;31.40;46.20;;;;;;4962823;28;20030;-70
2021/07/26 07:10:24;;;;;;;19.65;9.05;;;29.60;50.50;;;;;;4980983;28;20038;-68
2021/07/26 07:12:51;;;;;;;17.80;8.30;;;28.60;53.50;;;;;;4990750;28;20034;-70
2021/07/26 07:15:21;;;;;;;12.55;8.25;;;28.90;53.80;;;;;;4960496;28;20022;-70
2021/07/26 07:17:50;;;;;;;14.30;8.07;;;30.00;51.30;;;;;;4987880;28;20030;-69
2021/07/26 07:20:18;;;;;;;12.85;7.90;;;30.90;48.70;;;;;;4968454;28;20138;-70
2021/07/26 07:22:43;;;;;;;18.85;10.30;;;32.10;45.60;;;;;;4980362;28;20390;-68
2021/07/26 07:25:10;;;;;;;23.67;15.43;;;32.60;44.00;;;;;;4973118;28;20030;-70
2021/07/26 07:27:38;;;;;;;13.00;7.18;;;34.10;41.20;;;;;;4980465;28;20019;-72
2021/07/26 07:30:04;;;;;;;9.50;6.25;;;35.10;38.10;;;;;;4968177;28;20109;-70
2021/07/26 07:32:32;;;;;;;17.67;11.90;;;35.90;35.90;;;;;;4988194;28;20019;-70
2021/07/26 07:34:57;;;;;;;38.90;27.08;;;37.40;32.90;;;;;;4960078;28;20400;-69
2021/07/26 07:37:25;;;;;;;27.98;14.10;;;36.80;34.00;;;;;;4990889;28;20018;-70
2021/07/26 07:39:51;;;;;;;21.02;13.13;;;36.90;36.10;;;;;;4980600;28;20033;-70
2021/07/26 07:42:20;;;;;;;100.57;54.00;;;38.00;33.30;;;;;;4985833;28;20105;-71
2021/07/26 07:44:45;;;;;;;19.77;12.05;;;38.40;32.70;;;;;;4961584;28;20404;-70
2021/07/26 07:47:13;;;;;;;18.45;13.10;;;38.70;31.80;;;;;;4973193;28;20022;-68
2021/07/26 07:49:39;;;;;;;23.25;16.63;;;38.70;30.90;;;;;;4980301;28;20022;-71
2021/07/26 07:52:04;;;;;;;35.67;24.80;;;39.90;30.20;;;;;;4967796;28;20404;-69
2021/07/26 07:54:30;;;;;;;14.70;11.00;;;40.00;30.40;;;;;;4986791;28;20499;-70
2021/07/26 07:56:55;;;;;;;11.48;7.93;;;40.20;30.00;;;;;;4977862;28;20030;-69
2021/07/26 07:59:21;;;;;;;14.45;11.25;;;39.10;30.00;;;;;;4990534;28;20025;-66
2021/07/26 08:01:47;;;;;;;8.48;5.85;;;39.50;29.60;;;;;;4981257;28;20113;-69
2021/07/26 08:04:15;;;;;;;170.23;152.88;;;40.20;28.60;;;;;;4966071;28;20027;-69
2021/07/26 08:06:44;;;;;;;87.65;68.70;;;40.10;29.00;;;;;;4974613;28;20027;-68
2021/07/26 08:09:10;;;;;;;35.15;27.23;;;40.40;27.90;;;;;;4973223;28;20030;-67
2021/07/26 08:11:36;;;;;;;52.25;43.50;;;40.50;27.80;;;;;;4979736;28;20053;-68
2021/07/26 08:14:02;;;;;;;14.05;10.60;;;40.20;28.40;;;;;;4967695;28;20417;-68
2021/07/26 08:16:28;;;;;;;13.20;9.75;;;40.20;28.30;;;;;;4986095;28;20516;-71
2021/07/26 08:18:54;;;;;;;19.35;13.25;;;40.60;28.00;;;;;;4960472;28;20035;-70
2021/07/26 08:21:21;;;;;;;52.65;40.30;;;40.90;27.20;;;;;;4988619;28;20612;-71
2021/07/26 08:23:46;;;;;;;11.45;8.52;;;40.60;28.10;;;;;;4981121;28;20081;-70
2021/07/26 08:26:12;;;;;;;9.70;8.48;;;41.40;26.70;;;;;;4965570;28;20113;-68
2021/07/26 08:28:38;;;;;;;45.50;36.40;;;41.90;26.00;;;;;;4970324;28;20109;-69
2021/07/26 08:31:04;;;;;;;11.57;9.25;;;42.20;26.00;;;;;;4977386;28;20794;-71
2021/07/26 08:33:29;;;;;;;51.80;40.50;;;42.10;25.70;;;;;;4989033;28;20027;-71
2021/07/26 08:35:57;;;;;;;26.15;19.08;;;42.20;25.80;;;;;;4981260;28;20396;-71
2021/07/26 08:38:23;;;;;;;25.38;21.50;;;41.80;26.50;;;;;;4981905;28;20125;-67
2021/07/26 08:40:49;;;;;;;7.25;4.82;;;41.90;26.20;;;;;;4971499;28;20755;-70
2021/07/26 08:43:15;;;;;;;13.15;8.77;;;42.50;25.20;;;;;;4960133;28;20428;-73
2021/07/26 08:45:41;;;;;;;13.82;9.63;;;39.00;28.90;;;;;;4974579;28;20022;-67
2021/07/26 08:48:09;;;;;;;25.90;21.40;;;38.60;29.60;;;;;;4983798;28;20606;-70
2021/07/26 08:50:37;;;;;;;9.55;7.13;;;38.40;30.30;;;;;;4982391;28;20161;-69
2021/07/26 08:53:07;;;;;;;27.67;21.27;;;38.40;29.60;;;;;;4974394;28;20038;-68
2021/07/26 08:55:34;;;;;;;12.25;9.43;;;38.10;31.00;;;;;;4983473;28;20022;-67
2021/07/26 08:57:59;;;;;;;4.72;3.90;;;38.80;28.50;;;;;;4982159;28;20104;-69
2021/07/26 09:00:31;;;;;;;8.23;6.10;;;38.50;28.10;;;;;;4962387;28;20026;-67
2021/07/26 09:02:56;;;;;;;23.80;19.20;;;37.90;30.00;;;;;;4972507;28;20106;-69
2021/07/26 09:05:23;;;;;;;29.00;23.27;;;38.40;30.30;;;;;;4955067;28;20106;-68
2021/07/26 09:07:49;;;;;;;17.80;15.02;;;38.70;30.20;;;;;;4953843;28;20569;-70
2021/07/26 09:10:23;;;;;;;11.02;9.82;;;38.70;29.80;;;;;;4971418;28;20459;-68
2021/07/26 09:12:52;;;;;;;8.60;6.60;;;38.70;30.00;;;;;;4971895;28;20102;-68
2021/07/26 09:15:32;;;;;;;9.90;8.88;;;39.40;29.00;;;;;;4971080;28;20058;-68
2021/07/26 09:18:03;;;;;;;14.45;12.63;;;38.80;29.50;;;;;;4954659;28;20404;-69
2021/07/26 09:20:33;;;;;;;7.63;5.38;;;37.70;30.70;;;;;;4972987;28;20109;-70
2021/07/26 09:23:09;;;;;;;;;;;37.80;30.10;;;;;;4974125;28;20085;-68
2021/07/26 09:25:35;;;;;;;8.20;4.88;;;37.40;31.90;;;;;;4972737;28;19917;-69
2021/07/26 09:28:15;;;;;;;16.33;11.50;;;37.10;31.70;;;;;;4956020;28;20019;-70
2021/07/26 09:30:43;;;;;;;9.80;8.50;;;36.60;32.80;;;;;;4973544;28;20389;-68
2021/07/26 09:33:29;;;;;;;5.65;4.45;;;36.90;32.60;;;;;;4973441;28;20033;-68
2021/07/26 09:36:19;;;;;;;4.43;4.03;;;37.00;30.70;;;;;;4955050;28;20030;-66
2021/07/26 09:38:48;;;;;;;6.75;5.10;;;36.70;30.80;;;;;;4973442;28;20440;-68
2021/07/26 09:41:13;;;;;;;5.88;4.88;;;35.10;34.20;;;;;;4953646;28;20043;-68
2021/07/26 09:43:42;;;;;;;7.78;4.20;;;34.70;34.50;;;;;;4953831;29;20034;-69
2021/07/26 09:46:08;;;;;;;6.43;4.72;;;34.80;33.20;;;;;;4951747;29;20023;-67
2021/07/26 09:48:34;;;;;;;8.45;5.13;;;34.40;33.90;;;;;;4953570;28;20035;-68
2021/07/26 09:51:03;;;;;;;7.20;4.57;;;34.20;34.60;;;;;;4953691;28;20559;-68
2021/07/26 09:53:30;;;;;;;6.00;4.88;;;33.70;34.50;;;;;;4952610;28;20031;-68
2021/07/26 09:56:12;;;;;;;4.78;4.28;;;33.90;34.40;;;;;;4953215;28;20066;-69
2021/07/26 09:58:41;;;;;;;5.68;4.60;;;33.90;34.80;;;;;;4953565;28;20038;-69
2021/07/26 10:01:09;;;;;;;5.43;4.80;;;34.20;35.80;;;;;;4953746;28;20110;-69
2021/07/26 10:03:38;;;;;;;6.95;5.78;;;33.80;35.60;;;;;;4953719;29;20106;-70
2021/07/26 10:06:05;;;;;;;6.30;5.25;;;33.80;37.00;;;;;;4952888;28;20489;-69
2021/07/26 10:08:31;;;;;;;6.43;5.78;;;34.10;36.50;;;;;;4953575;28;20396;-69
2021/07/26 10:10:57;;;;;;;6.60;4.82;;;34.40;36.00;;;;;;4953555;28;20028;-69
2021/07/26 10:13:24;;;;;;;5.15;4.22;;;34.30;34.90;;;;;;4953215;28;20065;-69
2021/07/26 10:15:50;;;;;;;7.20;5.40;;;34.00;35.80;;;;;;4935740;29;20078;-70
2021/07/26 10:18:16;;;;;;;5.90;4.82;;;34.20;36.60;;;;;;4953439;29;20074;-68
2021/07/26 10:20:56;;;;;;;7.93;5.13;;;34.70;35.30;;;;;;4935919;29;20477;-69
2021/07/26 10:23:30;;;;;;;5.43;4.53;;;34.60;34.70;;;;;;4953627;28;20038;-68
2021/07/26 10:26:00;;;;;;;5.20;4.72;;;34.90;35.20;;;;;;4952601;28;20023;-69
2021/07/26 10:28:29;;;;;;;6.15;4.85;;;34.40;35.50;;;;;;4936157;29;20055;-69
2021/07/26 10:30:55;;;;;;;7.63;5.57;;;34.70;34.90;;;;;;4953468;28;20415;-68
2021/07/26 10:33:22;;;;;;;6.70;4.35;;;34.50;36.20;;;;;;4936104;29;20038;-68
2021/07/26 10:35:52;;;;;;;4.93;4.25;;;34.40;35.60;;;;;;4952668;28;20027;-67
2021/07/26 10:38:36;;;;;;;;;;;34.20;34.80;;;;;;4953826;28;20119;-70
2021/07/26 10:41:02;;;;;;;8.07;4.60;;;33.90;35.70;;;;;;4964092;28;19913;-71
2021/07/26 10:43:54;;;;;;;5.45;4.40;;;33.50;38.90;;;;;;4972415;28;20019;-68
2021/07/26 10:46:20;;;;;;;7.10;4.68;;;33.00;37.00;;;;;;4975116;28;20053;-70
2021/07/26 10:48:53;;;;;;;5.22;4.60;;;32.50;38.40;;;;;;4958528;28;20493;-67
2021/07/26 10:51:38;;;;;;;5.53;4.75;;;32.90;39.10;;;;;;4976144;28;20100;-68
2021/07/26 10:54:05;;;;;;;5.53;4.60;;;33.10;39.00;;;;;;4976241;28;20029;-68
2021/07/26 10:57:00;;;;;;;6.80;4.80;;;33.40;37.90;;;;;;4975414;28;20023;-68
2021/07/26 10:59:25;;;;;;;7.75;5.47;;;33.40;37.20;;;;;;4976446;28;20034;-69
2021/07/26 11:02:03;;;;;;;8.00;5.13;;;33.70;38.00;;;;;;4976278;28;20393;-66
2021/07/26 11:04:37;;;;;;;5.25;4.05;;;33.70;35.40;;;;;;4975545;28;20026;-68
2021/07/26 11:07:04;;;;;;;5.93;4.40;;;33.20;36.80;;;;;;4976033;28;20027;-69
2021/07/26 11:09:44;;;;;;;6.50;5.22;;;33.00;37.80;;;;;;4976010;28;20037;-68
2021/07/26 11:12:10;;;;;;;8.25;4.45;;;33.20;38.90;;;;;;4975836;28;20026;-67
2021/07/26 11:14:36;;;;;;;4.97;4.03;;;33.40;37.30;;;;;;4975227;28;20031;-66
2021/07/26 11:17:04;;;;;;;5.13;4.50;;;33.40;37.00;;;;;;4975668;28;20408;-68
2021/07/26 11:19:41;;;;;;;7.97;4.93;;;33.40;38.00;;;;;;4975803;28;20026;-67
2021/07/26 11:22:26;;;;;;;6.75;4.35;;;33.40;38.10;;;;;;4975562;28;20026;-68
2021/07/26 11:25:06;;;;;;;5.95;4.90;;;32.90;36.80;;;;;;4974857;28;20110;-68
2021/07/26 11:27:31;;;;;;;6.10;4.80;;;32.40;39.20;;;;;;4975829;28;20440;-68
2021/07/26 11:29:57;;;;;;;5.88;4.40;;;32.40;39.50;;;;;;4975549;28;20031;-69
2021/07/26 11:32:24;;;;;;;5.50;4.50;;;32.60;38.70;;;;;;4975661;28;20039;-68
2021/07/26 11:34:57;;;;;;;4.93;4.38;;;32.70;39.10;;;;;;4957159;28;20117;-67
2021/07/26 11:37:30;;;;;;;5.57;4.85;;;32.90;39.20;;;;;;4975294;28;20026;-67
2021/07/26 11:40:03;;;;;;;5.57;4.88;;;32.80;39.00;;;;;;4957565;28;20030;-67
2021/07/26 11:42:34;;;;;;;6.13;4.53;;;32.80;38.70;;;;;;4975143;28;20090;-69
2021/07/26 11:45:03;;;;;;;6.03;4.38;;;32.80;37.50;;;;;;4974191;28;20393;-68
2021/07/26 11:47:32;;;;;;;5.55;4.60;;;32.60;39.10;;;;;;4975136;28;20474;-68
2021/07/26 11:49:58;;;;;;;6.57;4.97;;;32.50;39.20;;;;;;4975571;28;20382;-68
2021/07/26 11:52:24;;;;;;;5.85;4.40;;;32.30;39.40;;;;;;4975087;28;20487;-69
2021/07/26 11:54:50;;;;;;;4.53;3.67;;;32.40;37.60;;;;;;4974391;28;20039;-69
2021/07/26 11:57:15;;;;;;;5.03;4.55;;;32.20;37.60;;;;;;4973503;28;20038;-69
2021/07/26 11:59:49;;;;;;;6.80;4.88;;;32.20;38.70;;;;;;4957515;28;20092;-68
2021/07/26 12:02:25;;;;;;;7.70;5.43;;;31.90;39.70;;;;;;4957652;28;20030;-66
2021/07/26 12:04:51;;;;;;;9.02;4.88;;;31.90;38.50;;;;;;4974028;28;20026;-67
2021/07/26 12:07:37;;;;;;;3.97;3.65;;;31.90;38.40;;;;;;4974990;28;20019;-67
2021/07/26 12:10:02;;;;;;;10.52;4.47;;;31.80;35.90;;;;;;4957022;28;20567;-69
2021/07/26 12:12:39;;;;;;;6.88;3.97;;;31.70;37.40;;;;;;4974083;28;20031;-67
2021/07/26 12:15:27;;;;;;;5.97;4.70;;;31.60;37.90;;;;;;4972027;28;20038;-67
2021/07/26 12:18:05;;;;;;;11.43;4.85;;;31.80;37.40;;;;;;4973442;28;20022;-68
2021/07/26 12:20:41;;;;;;;4.50;3.90;;;31.70;37.70;;;;;;4955011;28;20484;-68
2021/07/26 12:23:20;;;;;;;6.60;4.00;;;31.40;37.70;;;;;;4968053;28;20396;-68
2021/07/26 12:25:53;;;;;;;4.72;3.88;;;31.60;39.10;;;;;;4972303;28;20463;-67
2021/07/26 12:28:21;;;;;;;5.10;3.97;;;31.50;36.40;;;;;;4974297;28;20329;-66
2021/07/26 12:30:50;;;;;;;6.53;3.72;;;31.50;37.80;;;;;;4974089;28;20105;-67
2021/07/26 12:33:30;;;;;;;5.05;4.05;;;31.40;36.70;;;;;;4974594;28;20027;-67
2021/07/26 12:36:12;;;;;;;7.55;5.03;;;31.40;38.80;;;;;;4951579;28;20553;-67
2021/07/26 12:38:57;;;;;;;5.40;3.67;;;31.40;36.60;;;;;;4956769;28;20050;-68
2021/07/26 12:41:28;;;;;;;4.63;4.00;;;31.30;39.60;;;;;;4973942;28;20034;-67
2021/07/26 12:44:12;;;;;;;7.70;4.88;;;31.30;37.20;;;;;;4973897;28;20042;-67
2021/07/26 12:46:43;;;;;;;6.80;4.13;;;31.30;39.80;;;;;;4973085;28;20583;-65
2021/07/26 12:49:09;;;;;;;5.30;4.05;;;31.40;38.10;;;;;;4973823;28;20098;-67
2021/07/26 12:51:34;;;;;;;8.05;5.50;;;31.50;38.80;;;;;;4955681;28;20126;-68
2021/07/26 12:54:00;;;;;;;7.47;4.88;;;31.50;39.30;;;;;;4974156;28;20025;-68
2021/07/26 12:56:25;;;;;;;8.85;5.72;;;31.60;39.00;;;;;;4972969;28;20371;-67
2021/07/26 12:58:51;;;;;;;6.63;5.30;;;31.70;39.00;;;;;;4973702;28;20081;-68
2021/07/26 13:01:16;;;;;;;5.78;3.95;;;31.50;38.80;;;;;;4972547;28;20031;-68
2021/07/26 13:03:42;;;;;;;7.38;4.68;;;31.50;36.10;;;;;;4973839;28;20026;-68
2021/07/26 13:06:08;;;;;;;6.35;5.60;;;31.40;39.00;;;;;;4973018;28;20027;-69